Time;durP1;ratioP1;P1;durP2;ratioP2;P2;SDS_P1;SDS_P2;PMS_P1;PMS_P2;Temp;Humidity;BMP_temperature;BMP_pressure;BME280_temperature;BME280_humidity;BME280_pressure;Samples;Min_cycle;Max_cycle;Signal;HPM_P1;HPM_P2
2023/01/01 00:00:48;;;;;;;421.80;126.03;;;;;;;6.02;79.74;100921.81;4485237;32;34281;-74
2023/01/01 00:03:16;;;;;;;602.83;154.65;;;;;;;5.85;82.24;100914.38;4483291;32;33838;-74
2023/01/01 00:05:43;;;;;;;624.62;192.37;;;;;;;5.56;84.58;100909.44;4487234;31;33704;-73
2023/01/01 00:08:11;;;;;;;590.67;171.82;;;;;;;6.32;81.34;100914.78;4485129;32;34121;-73
2023/01/01 00:10:38;;;;;;;639.25;179.63;;;;;;;7.53;77.29;100910.31;4484797;32;34675;-73
2023/01/01 00:13:06;;;;;;;573.40;162.62;;;;;;;6.39;78.40;100924.75;4484980;32;33965;-72
2023/01/01 00:15:34;;;;;;;393.33;163.68;;;;;;;7.59;73.71;100923.69;4484702;32;33729;-74
2023/01/01 00:18:01;;;;;;;339.55;124.05;;;;;;;8.55;71.08;100922.88;4485231;32;33580;-73
2023/01/01 00:20:29;;;;;;;222.40;105.05;;;;;;;8.90;69.46;100911.53;4484953;32;33746;-74
2023/01/01 00:23:02;;;;;;;366.85;119.35;;;;;;;9.55;66.87;100909.03;4485381;32;33844;-73
2023/01/01 00:25:31;;;;;;;338.15;115.25;;;;;;;9.55;65.09;100915.09;4484159;32;33804;-74
2023/01/01 00:27:59;;;;;;;189.32;80.78;;;;;;;8.99;67.17;100907.00;4485299;32;33825;-73
2023/01/01 00:30:27;;;;;;;136.82;68.47;;;;;;;8.15;69.60;100909.66;4485263;32;33794;-73
2023/01/01 00:32:54;;;;;;;166.23;81.90;;;;;;;8.50;69.29;100908.72;4485501;32;33439;-72
2023/01/01 00:35:24;;;;;;;281.85;107.93;;;;;;;8.52;68.02;100900.31;4482948;32;33893;-73
2023/01/01 00:37:52;;;;;;;286.48;112.15;;;;;;;8.20;70.69;100900.56;4485007;32;34741;-73
2023/01/01 00:40:20;;;;;;;479.05;126.53;;;;;;;8.21;71.23;100910.12;4485374;32;34881;-73
2023/01/01 00:42:47;;;;;;;350.15;120.57;;;;;;;6.92;73.72;100916.88;4485311;32;34565;-72
2023/01/01 00:45:16;;;;;;;184.77;93.22;;;;;;;8.53;67.97;100911.53;4484455;32;34628;-73
2023/01/01 00:47:52;;;;;;;426.67;113.70;;;;;;;9.80;65.00;100896.03;4484542;32;34784;-73
2023/01/01 00:50:20;;;;;;;485.00;121.65;;;;;;;8.71;68.56;100915.44;4472859;32;34281;-73
2023/01/01 00:52:48;;;;;;;324.75;106.72;;;;;;;8.13;69.52;100921.56;4485026;32;33737;-72
2023/01/01 00:55:16;;;;;;;292.55;106.75;;;;;;;7.98;69.87;100905.88;4484399;32;33958;-74
2023/01/01 00:57:44;;;;;;;399.00;109.82;;;;;;;7.91;72.14;100907.09;4485181;32;33729;-73
2023/01/01 01:00:12;;;;;;;493.45;124.43;;;;;;;7.30;73.69;100908.59;4484964;32;33721;-73
2023/01/01 01:02:39;;;;;;;218.18;90.90;;;;;;;7.54;72.96;100916.38;4484997;32;34380;-72
2023/01/01 01:05:08;;;;;;;385.13;112.32;;;;;;;7.15;75.37;100908.34;4487762;31;34519;-73
2023/01/01 01:07:36;;;;;;;564.78;121.93;;;;;;;7.26;75.40;100907.50;4484838;32;33972;-72
2023/01/01 01:10:04;;;;;;;352.33;118.28;;;;;;;6.92;75.16;100916.88;4483210;32;33579;-72
2023/01/01 01:12:33;;;;;;;503.75;126.18;;;;;;;7.45;74.65;100907.16;4485052;32;34666;-72
2023/01/01 01:15:01;;;;;;;413.37;119.10;;;;;;;7.80;71.97;100910.56;4484288;32;33908;-73
2023/01/01 01:17:29;;;;;;;383.77;100.05;;;;;;;7.87;71.70;100907.66;4484904;32;33816;-73
2023/01/01 01:19:57;;;;;;;507.77;112.40;;;;;;;7.92;71.85;100910.56;4484353;32;34918;-73
2023/01/01 01:22:25;;;;;;;257.80;102.82;;;;;;;8.11;70.57;100912.81;4484631;32;34031;-73
2023/01/01 01:24:56;;;;;;;178.45;84.90;;;;;;;9.44;66.28;100908.31;4481962;32;33089;-73
2023/01/01 01:27:24;;;;;;;110.43;57.65;;;;;;;10.21;63.21;100910.75;4483593;32;33935;-74
2023/01/01 01:29:52;;;;;;;124.82;47.90;;;;;;;10.34;62.20;100910.75;4482021;32;33779;-73
2023/01/01 01:32:19;;;;;;;205.82;50.80;;;;;;;9.57;63.83;100916.09;4484892;32;33844;-73
2023/01/01 01:34:47;;;;;;;181.02;49.15;;;;;;;8.67;67.24;100908.22;4484197;32;33645;-73
2023/01/01 01:37:15;;;;;;;204.50;59.60;;;;;;;9.34;64.05;100900.75;4484714;32;33753;-72
2023/01/01 01:39:42;;;;;;;412.77;104.10;;;;;;;7.44;70.20;100919.97;4484179;32;34209;-72
2023/01/01 01:42:16;;;;;;;490.35;108.47;;;;;;;6.23;76.55;100920.09;4484663;32;33800;-72
2023/01/01 01:44:47;;;;;;;472.63;116.35;;;;;;;5.97;78.54;100923.16;4477010;32;32211;-72
2023/01/01 01:47:30;;;;;;;540.42;134.05;;;;;;;6.00;77.64;100920.81;4478560;32;34610;-73
2023/01/01 01:50:12;;;;;;;599.12;153.50;;;;;;;4.75;85.22;100924.06;4480879;32;34041;-73
2023/01/01 01:52:52;;;;;;;554.33;146.23;;;;;;;4.14;89.01;100917.97;4483647;32;33840;-73
2023/01/01 01:55:20;;;;;;;760.28;175.40;;;;;;;4.13;90.58;100918.72;4471637;32;34544;-72
2023/01/01 01:57:48;;;;;;;524.22;140.43;;;;;;;4.21;91.10;100914.25;4467541;32;33837;-72
2023/01/01 02:00:15;;;;;;;597.33;149.70;;;;;;;5.53;86.06;100915.22;4472135;31;34070;-73
2023/01/01 02:03:00;;;;;;;719.22;157.77;;;;;;;6.13;82.01;100916.66;4494562;31;34662;-74
2023/01/01 02:05:28;;;;;;;347.45;129.27;;;;;;;7.74;75.18;100916.16;4483597;32;34465;-73
2023/01/01 02:07:57;;;;;;;250.75;111.75;;;;;;;8.68;71.42;100915.19;4483004;32;32400;-73
2023/01/01 02:10:26;;;;;;;417.35;108.37;;;;;;;9.64;67.24;100915.72;4469646;32;33653;-72
2023/01/01 02:12:54;;;;;;;314.52;85.05;;;;;;;9.34;67.96;100914.56;4484326;32;35248;-73
2023/01/01 02:15:24;;;;;;;210.10;67.68;;;;;;;7.99;71.26;100913.69;4484359;32;33642;-73
2023/01/01 02:17:58;;;;;;;329.33;81.57;;;;;;;7.94;71.63;100909.91;4483332;32;34164;-73
2023/01/01 02:20:34;;;;;;;137.77;65.72;;;;;;;8.28;70.64;100912.34;4479537;32;34863;-74
2023/01/01 02:23:23;;;;;;;140.25;62.28;;;;;;;9.74;65.05;100916.34;4476535;32;34529;-73
2023/01/01 02:26:14;;;;;;;158.45;57.65;;;;;;;9.63;64.42;100921.66;4483019;32;33437;-73
2023/01/01 02:28:52;;;;;;;177.32;55.75;;;;;;;8.14;66.87;100923.38;4480557;32;33811;-72
2023/01/01 02:31:26;;;;;;;228.95;55.42;;;;;;;8.07;66.93;100933.25;4467317;32;34217;-72
2023/01/01 02:33:58;;;;;;;94.30;42.62;;;;;;;7.41;69.30;100930.03;4481986;32;33571;-72
2023/01/01 02:36:27;;;;;;;97.35;37.00;;;;;;;8.20;66.78;100923.78;4484573;32;34036;-73
2023/01/01 02:38:56;;;;;;;90.80;40.45;;;;;;;8.06;67.17;100938.28;4481397;32;33613;-72
2023/01/01 02:41:27;;;;;;;101.28;45.03;;;;;;;8.02;67.45;100932.00;4468713;32;33825;-73
2023/01/01 02:43:55;;;;;;;107.65;45.30;;;;;;;8.06;66.96;100938.28;4483099;32;33536;-72
2023/01/01 02:46:21;;;;;;;154.07;48.60;;;;;;;7.15;69.72;100936.69;4485885;32;33504;-72
2023/01/01 02:48:51;;;;;;;135.65;49.92;;;;;;;7.92;68.21;100932.13;4485865;31;34753;-73
2023/01/01 02:51:45;;;;;;;392.40;93.32;;;;;;;6.17;73.67;100939.28;4477809;31;34137;-72
2023/01/01 02:54:18;;;;;;;452.08;96.70;;;;;;;5.74;78.18;100930.59;4484048;32;34395;-72
2023/01/01 02:56:55;;;;;;;402.65;97.25;;;;;;;6.04;76.22;100933.13;4483827;32;33831;-73
2023/01/01 03:02:51;;;;;;;231.07;87.25;;;;;;;4.87;82.83;100920.88;4474538;32;33844;-72
2023/01/01 03:06:21;;;;;;;294.50;72.82;;;;;;;5.48;81.33;100921.66;4478296;32;34362;-73
2023/01/01 03:08:40;;;;;;;127.25;61.88;;;;;;;6.06;78.51;100921.28;4473449;32;34484;-73
2023/01/01 03:11:10;;;;;;;189.75;70.20;;;;;;;7.83;71.77;100910.81;4485934;32;33709;-74
2023/01/01 03:13:48;;;;;;;211.93;80.00;;;;;;;6.91;75.13;100909.03;4484333;32;33349;-73
2023/01/01 03:16:49;;;;;;;383.98;94.55;;;;;;;6.61;74.09;100922.22;4473111;32;34189;-74
2023/01/01 03:19:23;;;;;;;392.90;104.97;;;;;;;4.75;81.56;100917.25;4464360;32;33747;-74
2023/01/01 03:22:09;;;;;;;372.60;97.37;;;;;;;5.77;79.10;100920.59;4484526;32;33680;-73
2023/01/01 03:24:44;;;;;;;160.18;68.70;;;;;;;7.79;71.03;100903.62;4478595;32;34064;-73
2023/01/01 03:27:18;;;;;;;148.57;60.72;;;;;;;8.94;65.26;100908.34;4477856;32;33689;-73
2023/01/01 03:29:48;;;;;;;95.10;47.40;;;;;;;8.71;65.16;100915.44;4484540;32;34630;-72
2023/01/01 03:32:20;;;;;;;138.18;51.60;;;;;;;10.01;60.03;100910.34;4472209;32;34419;-72
2023/01/01 03:34:52;;;;;;;257.17;62.58;;;;;;;9.38;61.26;100897.56;4483844;32;34697;-73
2023/01/01 03:37:25;;;;;;;111.57;49.42;;;;;;;8.11;66.56;100902.47;4476547;32;34878;-73
2023/01/01 03:39:56;;;;;;;149.77;52.35;;;;;;;8.89;64.37;100899.41;4485769;32;34640;-73
2023/01/01 03:42:42;;;;;;;143.05;47.55;;;;;;;9.93;61.04;100911.56;4480042;32;33502;-72
2023/01/01 03:45:16;;;;;;;103.30;48.97;;;;;;;7.93;66.50;100913.25;4477255;32;34257;-73
2023/01/01 03:47:44;;;;;;;129.65;47.92;;;;;;;9.17;62.67;100905.66;4470814;32;33684;-73
2023/01/01 03:50:13;;;;;;;168.82;52.50;;;;;;;8.96;62.95;100911.94;4470345;31;33807;-73
2023/01/01 03:52:52;;;;;;;141.88;48.35;;;;;;;8.90;62.74;100912.41;4493262;31;33659;-73
2023/01/01 03:55:37;;;;;;;171.98;54.45;;;;;;;8.25;63.99;100905.28;4482175;31;33946;-73
2023/01/01 03:58:20;;;;;;;160.75;55.33;;;;;;;8.87;63.28;100908.75;4475535;31;34530;-72
2023/01/01 04:01:04;;;;;;;172.50;57.42;;;;;;;9.12;62.12;100888.94;4492069;31;33936;-73
2023/01/01 04:03:33;;;;;;;220.77;57.62;;;;;;;9.74;60.14;100893.03;4489886;31;33856;-74
2023/01/01 04:06:01;;;;;;;169.77;53.38;;;;;;;8.56;62.85;100904.03;4471201;32;33533;-72
2023/01/01 04:08:31;;;;;;;161.27;49.47;;;;;;;8.21;63.94;100902.38;4479239;32;33391;-73
2023/01/01 04:12:00;;;;;;;197.27;49.90;;;;;;;7.37;67.25;100899.66;4470603;31;34330;-72
2023/01/01 04:13:52;;;;;;;151.45;47.13;;;;;;;7.33;68.95;100901.09;4472620;31;33898;-73
2023/01/01 04:16:19;;;;;;;176.07;44.10;;;;;;;8.93;62.62;100888.50;4485142;32;33984;-72
2023/01/01 04:18:47;;;;;;;181.80;48.60;;;;;;;7.93;66.38;100902.06;4484428;32;34281;-72
2023/01/01 04:21:14;;;;;;;91.57;42.40;;;;;;;9.48;61.68;100893.91;4493990;31;33763;-74
2023/01/01 04:23:42;;;;;;;88.12;36.10;;;;;;;10.82;57.02;100893.88;4487936;31;34504;-72
2023/01/01 04:26:12;;;;;;;111.30;35.92;;;;;;;11.17;55.56;100887.34;4484595;32;34280;-72
2023/01/01 04:28:41;;;;;;;78.85;34.22;;;;;;;11.26;54.65;100886.09;4484902;32;32732;-73
2023/01/01 04:31:09;;;;;;;118.57;33.55;;;;;;;10.68;56.22;100889.56;4493204;31;33975;-73
2023/01/01 04:33:36;;;;;;;127.97;35.13;;;;;;;10.25;57.64;100899.78;4483132;31;34706;-74
2023/01/01 04:36:06;;;;;;;113.47;35.45;;;;;;;8.71;61.30;100894.75;4496932;31;34661;-72
2023/01/01 04:38:34;;;;;;;112.78;42.42;;;;;;;9.05;61.36;100886.72;4489765;31;33371;-74
2023/01/01 04:41:03;;;;;;;124.55;41.83;;;;;;;8.79;61.99;100888.44;4493662;31;34508;-72
2023/01/01 04:43:30;;;;;;;108.25;42.38;;;;;;;9.33;60.56;100879.16;4486501;31;33658;-73
2023/01/01 04:46:01;;;;;;;111.20;39.45;;;;;;;9.78;59.19;100885.56;4488814;31;34752;-74
2023/01/01 04:48:30;;;;;;;122.62;42.40;;;;;;;10.37;57.29;100895.44;4484875;31;32857;-71
2023/01/01 04:50:59;;;;;;;119.15;44.83;;;;;;;10.46;57.08;100883.84;4485907;31;34471;-74
2023/01/01 04:53:31;;;;;;;91.12;38.40;;;;;;;10.57;56.60;100882.81;4488139;31;33968;-73
2023/01/01 04:56:19;;;;;;;125.65;52.55;;;;;;;10.97;55.39;100877.47;4484515;32;33772;-72
2023/01/01 04:58:47;;;;;;;140.98;48.95;;;;;;;11.10;54.55;100885.19;4475220;32;33882;-72
2023/01/01 05:01:24;;;;;;;126.00;48.97;;;;;;;10.60;55.79;100893.34;4492736;31;33843;-72
2023/01/01 05:03:52;;;;;;;72.95;31.02;;;;;;;10.84;55.01;100893.09;4487942;31;34464;-74
2023/01/01 05:06:20;;;;;;;75.07;30.85;;;;;;;10.53;56.07;100896.38;4484543;32;34852;-73
2023/01/01 05:08:49;;;;;;;76.78;29.15;;;;;;;10.34;56.61;100903.00;4483963;31;33626;-74
2023/01/01 05:11:19;;;;;;;131.45;41.33;;;;;;;10.38;56.20;100894.59;4483971;31;33671;-72
2023/01/01 05:13:48;;;;;;;114.07;38.88;;;;;;;9.79;57.45;100892.56;4487831;31;34569;-73
2023/01/01 05:16:18;;;;;;;120.47;37.67;;;;;;;9.69;57.48;100894.44;4471890;31;34082;-73
2023/01/01 05:18:46;;;;;;;100.43;37.30;;;;;;;9.99;56.79;100888.66;4482563;31;33146;-73
2023/01/01 05:21:17;;;;;;;103.35;37.85;;;;;;;10.07;56.58;100893.44;4486054;31;33629;-73
2023/01/01 05:23:44;;;;;;;96.10;35.85;;;;;;;10.34;55.78;100895.22;4494681;31;34713;-72
2023/01/01 05:26:17;;;;;;;129.23;38.38;;;;;;;10.41;55.75;100887.03;4484679;32;34741;-72
2023/01/01 05:28:46;;;;;;;96.25;38.60;;;;;;;9.87;57.19;100887.87;4485958;31;34389;-72
2023/01/01 05:31:15;;;;;;;110.07;38.65;;;;;;;10.49;55.82;100896.97;4493253;31;33910;-73
2023/01/01 05:33:43;;;;;;;119.82;38.08;;;;;;;10.41;55.95;100897.41;4488426;31;34073;-74
2023/01/01 05:36:22;;;;;;;113.07;38.65;;;;;;;10.12;56.75;100912.72;4486239;31;34102;-73
2023/01/01 05:38:50;;;;;;;92.62;38.03;;;;;;;10.15;56.54;100915.53;4483460;32;34360;-73
2023/01/01 05:41:19;;;;;;;117.22;37.60;;;;;;;10.47;55.67;100914.09;4484592;32;33796;-73
2023/01/01 05:43:47;;;;;;;130.90;38.75;;;;;;;10.43;55.35;100907.87;4491306;31;34076;-72
2023/01/01 05:46:17;;;;;;;121.10;39.97;;;;;;;10.56;55.18;100901.75;4493633;31;34960;-73
2023/01/01 05:48:47;;;;;;;131.48;38.85;;;;;;;9.51;57.32;100913.09;4484647;32;33520;-72
2023/01/01 05:51:19;;;;;;;142.35;40.47;;;;;;;9.07;59.38;100916.16;4497075;31;33917;-73
2023/01/01 05:53:47;;;;;;;81.55;36.90;;;;;;;9.64;57.59;100918.31;4475624;31;33293;-73
2023/01/01 05:56:15;;;;;;;122.20;40.75;;;;;;;10.32;55.55;100927.91;4486665;31;34169;-74
2023/01/01 05:58:43;;;;;;;84.53;38.67;;;;;;;10.43;55.30;100926.88;4484732;32;33906;-73
2023/01/01 06:01:14;;;;;;;92.78;44.40;;;;;;;11.39;52.83;100935.31;4487181;31;33739;-72
2023/01/01 06:03:43;;;;;;;91.90;43.67;;;;;;;12.46;48.94;100938.03;4481791;31;33835;-73
2023/01/01 06:06:12;;;;;;;86.12;36.78;;;;;;;11.32;51.63;100935.72;4495803;31;34609;-72
2023/01/01 06:08:40;;;;;;;89.95;41.30;;;;;;;11.28;52.08;100944.12;4483637;32;34312;-72
2023/01/01 06:11:10;;;;;;;112.25;39.60;;;;;;;11.56;51.26;100952.75;4484147;32;33710;-72
2023/01/01 06:13:38;;;;;;;61.05;35.00;;;;;;;11.57;50.85;100958.84;4490931;31;33867;-74
2023/01/01 06:16:06;;;;;;;125.75;38.92;;;;;;;11.44;51.59;100949.44;4493581;31;34810;-73
2023/01/01 06:18:34;;;;;;;93.12;38.80;;;;;;;10.44;54.45;100969.22;4484638;32;33547;-72
2023/01/01 06:21:07;;;;;;;66.97;36.30;;;;;;;11.24;53.13;100968.09;4484269;32;34055;-74
2023/01/01 06:23:36;;;;;;;83.65;35.30;;;;;;;12.38;49.44;100960.97;4485222;31;33989;-74
2023/01/01 06:26:09;;;;;;;90.50;33.90;;;;;;;11.85;50.38;100970.88;4479669;31;33883;-71
2023/01/01 06:28:37;;;;;;;82.70;34.85;;;;;;;11.58;51.02;100971.91;4488281;31;33883;-73
2023/01/01 06:31:06;;;;;;;90.97;37.80;;;;;;;11.45;51.49;100984.97;4494719;31;33715;-73
2023/01/01 06:33:34;;;;;;;81.35;40.72;;;;;;;12.52;48.32;100973.84;4495534;31;34448;-73
2023/01/01 06:36:05;;;;;;;96.18;41.10;;;;;;;12.62;47.90;100978.75;4485119;31;33845;-73
2023/01/01 06:38:34;;;;;;;87.47;37.13;;;;;;;11.25;51.14;100980.28;4484156;32;33734;-73
2023/01/01 06:41:03;;;;;;;71.15;34.78;;;;;;;10.95;52.21;100975.91;4481576;31;33411;-72
2023/01/01 06:43:33;;;;;;;102.32;40.58;;;;;;;10.79;52.80;100994.75;4486924;31;33565;-74
2023/01/01 06:46:17;;;;;;;98.78;42.00;;;;;;;11.12;52.26;100995.06;4484431;31;33943;-72
2023/01/01 06:48:46;;;;;;;149.80;38.80;;;;;;;10.74;52.84;101006.56;4486388;31;33538;-72
2023/01/01 06:51:27;;;;;;;101.05;37.00;;;;;;;7.26;64.61;101020.88;4476964;32;34405;-73
2023/01/01 06:53:58;;;;;;;113.82;39.10;;;;;;;8.38;61.93;101012.00;4494443;31;34014;-73
2023/01/01 06:56:26;;;;;;;110.05;36.65;;;;;;;8.48;61.28;101003.25;4487835;31;34627;-73
2023/01/01 06:58:54;;;;;;;95.10;37.30;;;;;;;8.48;61.54;101005.84;4489911;31;33682;-74
2023/01/01 07:01:24;;;;;;;104.30;38.58;;;;;;;9.05;59.78;101010.78;4486168;31;34593;-72
2023/01/01 07:03:53;;;;;;;79.40;35.70;;;;;;;9.74;57.60;100994.84;4483993;31;217315;-72
2023/01/01 07:06:21;;;;;;;71.80;35.78;;;;;;;10.07;56.87;100986.63;4483295;32;34699;-74
2023/01/01 07:08:49;;;;;;;68.22;34.95;;;;;;;10.52;55.54;101004.28;4476203;31;33747;-72
2023/01/01 07:11:17;;;;;;;75.93;34.83;;;;;;;10.93;54.44;101002.50;4483791;31;33993;-73
2023/01/01 07:13:45;;;;;;;53.45;33.10;;;;;;;10.82;54.82;101000.16;4494750;31;33846;-74
2023/01/01 07:16:13;;;;;;;69.97;34.08;;;;;;;11.29;53.52;100993.53;4483455;31;33998;-72
2023/01/01 07:18:41;;;;;;;77.50;33.78;;;;;;;10.93;54.49;100997.31;4483665;32;34338;-73
2023/01/01 07:21:33;;;;;;;56.90;32.83;;;;;;;10.75;55.25;100997.97;4483396;32;33757;-73
2023/01/01 07:24:03;;;;;;;71.72;32.92;;;;;;;11.32;53.86;100987.59;4472508;31;34316;-73
2023/01/01 07:26:32;;;;;;;59.78;33.13;;;;;;;11.00;55.01;100989.13;4490456;31;34924;-72
2023/01/01 07:29:00;;;;;;;64.32;32.78;;;;;;;10.82;55.21;100989.78;4482941;31;33623;-72
2023/01/01 07:31:37;;;;;;;70.07;32.33;;;;;;;10.65;56.07;100985.25;4496047;31;33833;-73
2023/01/01 07:34:08;;;;;;;54.10;32.63;;;;;;;10.56;56.55;100982.94;4477480;31;33267;-72
2023/01/01 07:36:36;;;;;;;76.18;42.55;;;;;;;11.23;54.82;100987.06;4485603;32;35919;-73
2023/01/01 07:39:03;;;;;;;97.57;43.38;;;;;;;11.08;55.63;100982.72;4489412;31;34180;-72
2023/01/01 07:41:30;;;;;;;76.40;35.50;;;;;;;10.45;57.50;100990.84;4490467;31;33852;-74
2023/01/01 07:43:59;;;;;;;68.32;35.20;;;;;;;10.67;57.11;100983.63;4497075;31;33743;-74
2023/01/01 07:46:26;;;;;;;61.45;33.17;;;;;;;11.18;55.82;100997.16;4495081;31;34253;-73
2023/01/01 07:48:54;;;;;;;69.55;33.25;;;;;;;11.24;56.12;100994.03;4485296;31;34301;-73
2023/01/01 07:51:21;;;;;;;60.80;31.70;;;;;;;11.36;55.79;101000.00;4490685;31;34698;-73
2023/01/01 07:53:50;;;;;;;64.72;30.30;;;;;;;11.33;56.21;100994.59;4489304;31;33882;-73
2023/01/01 07:56:18;;;;;;;58.85;31.85;;;;;;;11.47;55.95;101004.09;4484951;31;35005;-74
2023/01/01 07:58:45;;;;;;;64.87;31.60;;;;;;;12.24;53.56;101002.56;4481524;32;34451;-73
2023/01/01 08:01:13;;;;;;;54.88;29.60;;;;;;;11.89;54.74;101010.09;4484567;32;34050;-73
2023/01/01 08:03:41;;;;;;;52.85;29.80;;;;;;;11.91;55.00;101018.00;4484945;32;33560;-74
2023/01/01 08:06:11;;;;;;;60.17;30.10;;;;;;;11.87;55.27;101016.00;4484758;32;33786;-73
2023/01/01 08:08:39;;;;;;;59.67;31.23;;;;;;;11.67;55.97;101023.50;4484770;32;34316;-73
2023/01/01 08:11:07;;;;;;;47.72;29.23;;;;;;;11.78;55.91;101024.09;4483500;32;34604;-74
2023/01/01 08:13:34;;;;;;;43.40;28.90;;;;;;;12.03;55.15;101029.09;4484667;32;33622;-73
2023/01/01 08:16:02;;;;;;;48.97;29.58;;;;;;;12.38;54.36;101028.53;4485087;32;33673;-73
2023/01/01 08:18:30;;;;;;;45.40;28.10;;;;;;;12.31;54.74;101030.69;4470145;32;34332;-73
2023/01/01 08:20:57;;;;;;;41.88;29.05;;;;;;;12.44;54.62;101040.06;4479554;32;34449;-72
2023/01/01 08:23:25;;;;;;;47.83;30.83;;;;;;;12.28;55.38;101041.78;4486475;31;33811;-73
2023/01/01 08:25:52;;;;;;;48.08;29.60;;;;;;;12.69;53.79;101045.88;4491208;31;33960;-74
2023/01/01 08:28:20;;;;;;;45.40;29.42;;;;;;;12.68;53.95;101044.06;4497999;31;33495;-73
2023/01/01 08:30:47;;;;;;;45.00;30.08;;;;;;;13.21;52.87;101044.34;4495128;31;33963;-74
2023/01/01 08:33:15;;;;;;;49.35;29.90;;;;;;;12.90;53.55;101045.25;4491844;31;33628;-72
2023/01/01 08:35:42;;;;;;;47.72;28.70;;;;;;;13.30;52.61;101042.25;4492659;31;33405;-73
2023/01/01 08:38:16;;;;;;;58.35;29.48;;;;;;;12.94;53.85;101048.13;4471739;32;34546;-71
2023/01/01 08:40:44;;;;;;;41.30;28.25;;;;;;;12.24;55.63;101045.03;4484923;32;33719;-73
2023/01/01 08:43:12;;;;;;;43.92;28.52;;;;;;;12.65;55.27;101043.91;4485247;32;34003;-73
2023/01/01 08:45:39;;;;;;;42.55;28.58;;;;;;;12.16;57.59;101054.97;4488390;31;34093;-74
2023/01/01 08:48:07;;;;;;;45.38;28.77;;;;;;;12.59;56.58;101039.25;4484571;32;33815;-73
2023/01/01 08:50:35;;;;;;;45.88;29.40;;;;;;;13.02;55.91;101040.75;4484533;32;34435;-73
2023/01/01 08:53:02;;;;;;;49.10;30.45;;;;;;;13.05;56.21;101030.50;4484912;32;34806;-73
2023/01/01 08:55:30;;;;;;;45.45;28.75;;;;;;;13.29;55.84;101024.81;4487750;31;33894;-74
2023/01/01 08:57:57;;;;;;;42.80;28.95;;;;;;;12.13;59.14;101028.84;4483633;32;33247;-72
2023/01/01 09:00:25;;;;;;;45.03;29.52;;;;;;;12.16;59.78;101036.78;4486148;31;33913;-74
2023/01/01 09:02:53;;;;;;;44.10;29.40;;;;;;;12.05;60.42;101032.66;4493119;31;33853;-74
2023/01/01 09:05:20;;;;;;;42.60;27.50;;;;;;;12.33;59.76;101029.97;4484796;32;34181;-72
2023/01/01 09:07:48;;;;;;;43.67;28.48;;;;;;;12.72;59.05;101038.22;4488763;31;33724;-73
2023/01/01 09:10:16;;;;;;;40.33;27.13;;;;;;;12.63;59.64;101040.31;4484753;32;34550;-73
2023/01/01 09:12:43;;;;;;;42.15;27.20;;;;;;;13.25;58.50;101030.66;4484918;32;33560;-74
2023/01/01 09:15:14;;;;;;;43.70;28.27;;;;;;;13.21;59.01;101042.62;4484631;32;33516;-72
2023/01/01 09:17:42;;;;;;;39.50;27.52;;;;;;;13.72;57.42;101033.22;4487017;31;33977;-73
2023/01/01 09:20:09;;;;;;;39.17;26.85;;;;;;;13.81;57.40;101038.03;4484990;31;33897;-72
2023/01/01 09:22:37;;;;;;;39.80;26.30;;;;;;;13.35;58.84;101035.59;4484731;32;33511;-74
2023/01/01 09:25:05;;;;;;;39.78;25.80;;;;;;;12.96;60.77;101045.59;4490682;31;34839;-73
2023/01/01 09:27:32;;;;;;;39.72;24.73;;;;;;;13.53;60.03;101041.78;4487104;31;33458;-74
2023/01/01 09:30:00;;;;;;;36.78;23.25;;;;;;;13.28;60.53;101038.66;4486208;31;34725;-73
2023/01/01 09:32:29;;;;;;;36.83;24.12;;;;;;;13.34;60.98;101037.28;4483716;32;34273;-72
2023/01/01 09:34:56;;;;;;;32.90;21.87;;;;;;;13.07;62.60;101038.38;4488076;31;34093;-74
2023/01/01 09:37:24;;;;;;;38.42;24.35;;;;;;;13.75;60.76;101024.66;4485897;31;33548;-73
2023/01/01 09:39:51;;;;;;;34.35;22.52;;;;;;;12.71;63.86;101032.94;4489681;31;34709;-73
2023/01/01 09:42:31;;;;;;;35.38;21.92;;;;;;;12.76;64.13;101037.59;4484458;32;33336;-74
2023/01/01 09:45:24;;;;;;;33.10;21.23;;;;;;;12.50;65.40;101025.75;4482906;32;34701;-74
2023/01/01 09:47:58;;;;;;;34.97;21.67;;;;;;;13.21;63.39;101028.72;4486570;31;33657;-73
2023/01/01 09:50:39;;;;;;;36.60;21.85;;;;;;;12.69;65.35;101030.28;4482924;32;33736;-72
2023/01/01 09:53:26;;;;;;;34.38;21.90;;;;;;;12.36;66.94;101026.63;4470447;32;33242;-73
2023/01/01 09:56:02;;;;;;;36.55;22.70;;;;;;;13.27;63.82;101034.25;4484351;32;33734;-73
2023/01/01 09:58:34;;;;;;;36.05;22.75;;;;;;;13.17;64.68;101031.19;4487986;31;33524;-74
2023/01/01 10:01:32;;;;;;;38.38;22.55;;;;;;;13.16;64.71;101031.97;4484400;31;33942;-73
2023/01/01 10:04:12;;;;;;;39.78;22.48;;;;;;;13.83;63.05;101025.97;4482683;32;33965;-73
2023/01/01 10:06:49;;;;;;;35.40;22.08;;;;;;;13.44;64.27;101033.47;4484487;32;34686;-74
2023/01/01 10:09:27;;;;;;;36.60;22.13;;;;;;;13.33;65.09;101027.72;4482810;32;33749;-74
2023/01/01 10:11:59;;;;;;;33.65;20.65;;;;;;;13.85;63.51;101029.53;4482239;32;34502;-72
2023/01/01 10:14:32;;;;;;;35.78;22.45;;;;;;;13.93;62.34;101024.72;4483204;32;33389;-73
2023/01/01 10:17:02;;;;;;;34.95;21.48;;;;;;;14.35;61.62;101025.97;4484701;32;33879;-74
2023/01/01 10:19:35;;;;;;;32.75;20.92;;;;;;;14.30;61.82;101024.84;4477323;31;34257;-73
2023/01/01 10:22:07;;;;;;;33.75;21.98;;;;;;;14.53;60.70;101017.25;4481726;31;34015;-73
2023/01/01 10:24:40;;;;;;;38.38;22.85;;;;;;;14.51;61.08;101013.69;4491597;31;34021;-74
2023/01/01 10:27:18;;;;;;;36.80;22.52;;;;;;;14.01;62.77;101014.69;4483079;32;34114;-72
2023/01/01 10:29:48;;;;;;;38.65;23.17;;;;;;;13.92;64.07;101005.56;4471149;32;32052;-74
2023/01/01 10:32:20;;;;;;;37.05;22.30;;;;;;;13.85;64.47;101008.72;4471217;32;33713;-73
2023/01/01 10:34:49;;;;;;;40.17;23.40;;;;;;;13.89;64.83;101015.84;4487884;31;33969;-74
2023/01/01 10:37:17;;;;;;;34.78;21.55;;;;;;;14.60;62.67;101014.13;4473511;32;32445;-73
2023/01/01 10:39:45;;;;;;;36.72;21.90;;;;;;;14.72;61.76;101008.62;4482914;32;33831;-73
2023/01/01 10:42:14;;;;;;;33.13;20.77;;;;;;;14.32;63.22;101002.34;4468425;32;31474;-74
2023/01/01 10:44:42;;;;;;;35.03;19.52;;;;;;;14.03;64.31;100993.09;4467151;32;34594;-73
2023/01/01 10:47:27;;;;;;;30.08;17.87;;;;;;;14.22;64.35;100994.03;4476938;32;34143;-73
2023/01/01 10:49:55;;;;;;;;;;;;;;;14.17;64.33;100996.37;4483537;32;34278;-73
2023/01/01 10:52:26;;;;;;;32.47;18.90;;;;;;;14.71;62.59;100994.69;4483750;32;34855;-74
2023/01/01 10:54:54;;;;;;;29.12;17.90;;;;;;;15.23;60.47;100988.34;4482347;32;34534;-73
2023/01/01 10:57:39;;;;;;;29.10;18.85;;;;;;;14.29;63.66;100991.78;4486201;32;34203;-74
2023/01/01 11:00:21;;;;;;;29.02;17.55;;;;;;;14.74;62.27;100987.00;4485790;32;33738;-73
2023/01/01 11:03:18;;;;;;;28.08;17.10;;;;;;;14.79;62.08;100975.91;4484576;31;34590;-73
2023/01/01 11:06:08;;;;;;;28.70;15.50;;;;;;;14.69;62.34;100972.84;4488363;31;33930;-73
2023/01/01 11:08:38;;;;;;;28.83;16.17;;;;;;;14.40;63.53;100975.78;4482575;32;33885;-74
2023/01/01 11:11:06;;;;;;;29.05;16.33;;;;;;;14.39;64.57;100958.31;4481904;32;33802;-73
2023/01/01 11:13:33;;;;;;;28.95;17.60;;;;;;;15.04;62.18;100947.50;4484860;32;34906;-72
2023/01/01 11:16:01;;;;;;;27.87;16.92;;;;;;;14.50;64.90;100949.31;4489362;31;33757;-73
2023/01/01 11:18:34;;;;;;;30.67;18.35;;;;;;;15.43;61.54;100933.53;4488944;31;34889;-74
2023/01/01 11:21:04;;;;;;;27.33;16.30;;;;;;;14.92;62.70;100932.19;4488788;31;33408;-73
2023/01/01 11:23:36;;;;;;;27.35;15.27;;;;;;;15.32;61.49;100925.25;4484986;31;34037;-75
2023/01/01 11:26:12;;;;;;;30.42;17.37;;;;;;;14.46;63.81;100937.84;4486321;31;33492;-73
2023/01/01 11:28:40;;;;;;;25.10;16.15;;;;;;;15.32;62.35;100935.69;4485204;32;34933;-74